GLD1736 SBSV-SBPL
Flight info
| Callsign | GLD1736 |
|---|---|
| Flight time | 0h 49m |
| Altitude | 32000 |
| Route | BOGUT DCT SIPIR |
| Aircraft | B737/M-SDE2E3FGHIRWXY/LB1 |
Departure
| Time | 2026-04-23 17:34 |
|---|---|
| Airport | Deputado Luiz Eduardo Magalhães International Airport (SBSV) |
Arrival
| Time | 2026-04-23 18:24 |
|---|---|
| Airport | Senador Nilo Coelho Airport (SBPL) |
| Time | Latitude | Longitude | Altitude | Speed | Heading |
|---|---|---|---|---|---|
| 2026-04-23 16:47 | -12.91337 | -38.33272 | 72 ft | 0 kts | 168° |
| 2026-04-23 17:26 | -12.91316 | -38.33276 | 72 ft | 2 kts | 170° |
| 2026-04-23 17:27 | -12.91292 | -38.33281 | 72 ft | 2 kts | 198° |
| 2026-04-23 17:27 | -12.91284 | -38.33274 | 72 ft | 2 kts | 249° |
| 2026-04-23 17:27 | -12.91280 | -38.33261 | 72 ft | 2 kts | 258° |
| 2026-04-23 17:27 | -12.91277 | -38.33247 | 72 ft | 2 kts | 258° |
| 2026-04-23 17:28 | -12.91274 | -38.33231 | 72 ft | 2 kts | 258° |
| 2026-04-23 17:30 | -12.91275 | -38.33232 | 72 ft | 1 kts | 258° |
| 2026-04-23 17:31 | -12.91281 | -38.33275 | 72 ft | 6 kts | 281° |
| 2026-04-23 17:31 | -12.91257 | -38.33305 | 72 ft | 5 kts | 321° |
| 2026-04-23 17:31 | -12.91217 | -38.33342 | 72 ft | 13 kts | 306° |
| 2026-04-23 17:31 | -12.91188 | -38.33433 | 72 ft | 13 kts | 268° |
| 2026-04-23 17:32 | -12.91194 | -38.33490 | 72 ft | 6 kts | 269° |
| 2026-04-23 17:32 | -12.91193 | -38.33536 | 72 ft | 6 kts | 272° |
| 2026-04-23 17:32 | -12.91171 | -38.33569 | 72 ft | 6 kts | 336° |
| 2026-04-23 17:32 | -12.91131 | -38.33564 | 72 ft | 6 kts | 36° |
| 2026-04-23 17:33 | -12.91113 | -38.33531 | 72 ft | 0 kts | 72° |
| 2026-04-23 17:33 | -12.91096 | -38.33458 | 72 ft | 23 kts | 80° |
| 2026-04-23 17:33 | -12.91040 | -38.33137 | 72 ft | 81 kts | 75° |
| 2026-04-23 17:34 | -12.90883 | -38.32339 | 74 ft | 145 kts | 78° |
| 2026-04-23 17:34 | -12.90667 | -38.31236 | 512 ft | 164 kts | 79° |
| 2026-04-23 17:34 | -12.90214 | -38.28991 | 2085 ft | 155 kts | 76° |
| 2026-04-23 17:35 | -12.89577 | -38.28038 | 2404 ft | 179 kts | 39° |
| 2026-04-23 17:35 | -12.86789 | -38.27611 | 3006 ft | 233 kts | 358° |
| 2026-04-23 17:35 | -12.85094 | -38.27722 | 3321 ft | 252 kts | 358° |
| 2026-04-23 17:36 | -12.83319 | -38.27842 | 3849 ft | 266 kts | 358° |
| 2026-04-23 17:36 | -12.81420 | -38.27971 | 4474 ft | 278 kts | 358° |
| 2026-04-23 17:36 | -12.79472 | -38.28105 | 5282 ft | 283 kts | 358° |
| 2026-04-23 17:36 | -12.77500 | -38.28241 | 5766 ft | 286 kts | 358° |
| 2026-04-23 17:37 | -12.75498 | -38.28379 | 5972 ft | 289 kts | 358° |
| 2026-04-23 17:37 | -12.73471 | -38.28519 | 6003 ft | 293 kts | 358° |
| 2026-04-23 17:37 | -12.69423 | -38.28787 | 6268 ft | 289 kts | 359° |
| 2026-04-23 17:38 | -12.67425 | -38.28902 | 7096 ft | 290 kts | 359° |
| 2026-04-23 17:38 | -12.65383 | -38.29022 | 7981 ft | 293 kts | 359° |
| 2026-04-23 17:38 | -12.63338 | -38.29141 | 8830 ft | 298 kts | 359° |
| 2026-04-23 17:38 | -12.61247 | -38.29263 | 9719 ft | 301 kts | 359° |
| 2026-04-23 17:39 | -12.59149 | -38.29386 | 10635 ft | 305 kts | 359° |
| 2026-04-23 17:39 | -12.57000 | -38.29513 | 11177 ft | 322 kts | 358° |
| 2026-04-23 17:39 | -12.54671 | -38.29650 | 11741 ft | 337 kts | 358° |
| 2026-04-23 17:39 | -12.52347 | -38.29787 | 12538 ft | 341 kts | 358° |
| 2026-04-23 17:40 | -12.49959 | -38.29927 | 13396 ft | 345 kts | 358° |
| 2026-04-23 17:40 | -12.47541 | -38.30070 | 14234 ft | 349 kts | 358° |
| 2026-04-23 17:40 | -12.45104 | -38.30214 | 15064 ft | 353 kts | 357° |
| 2026-04-23 17:40 | -12.42635 | -38.30359 | 15906 ft | 357 kts | 357° |
| 2026-04-23 17:41 | -12.40160 | -38.30660 | 16714 ft | 361 kts | 346° |
| 2026-04-23 17:41 | -12.35955 | -38.33439 | 18287 ft | 369 kts | 309° |
| 2026-04-23 17:41 | -12.34683 | -38.35729 | 18993 ft | 375 kts | 290° |
| 2026-04-23 17:42 | -12.33812 | -38.41048 | 20318 ft | 385 kts | 285° |
| 2026-04-23 17:42 | -12.32782 | -38.43579 | 20951 ft | 390 kts | 299° |
| 2026-04-23 17:42 | -12.31497 | -38.46042 | 21534 ft | 396 kts | 296° |
| 2026-04-23 17:43 | -12.30311 | -38.48606 | 22105 ft | 402 kts | 294° |
| 2026-04-23 17:43 | -12.29206 | -38.51260 | 22680 ft | 407 kts | 292° |
| 2026-04-23 17:43 | -12.28105 | -38.53936 | 23230 ft | 412 kts | 292° |
| 2026-04-23 17:43 | -12.26970 | -38.56654 | 23763 ft | 417 kts | 293° |
| 2026-04-23 17:44 | -12.25818 | -38.59393 | 24279 ft | 421 kts | 293° |
| 2026-04-23 17:44 | -12.24652 | -38.62156 | 24795 ft | 426 kts | 293° |
| 2026-04-23 17:44 | -12.22293 | -38.67736 | 25773 ft | 434 kts | 293° |
| 2026-04-23 17:45 | -12.21075 | -38.70614 | 26273 ft | 438 kts | 293° |
| 2026-04-23 17:45 | -12.18651 | -38.76339 | 27359 ft | 441 kts | 293° |
| 2026-04-23 17:45 | -12.17433 | -38.79216 | 27976 ft | 441 kts | 293° |
| 2026-04-23 17:46 | -12.14991 | -38.84978 | 29149 ft | 442 kts | 293° |
| 2026-04-23 17:46 | -12.13764 | -38.87874 | 29739 ft | 443 kts | 293° |
| 2026-04-23 17:46 | -12.12542 | -38.90765 | 30314 ft | 443 kts | 292° |
| 2026-04-23 17:47 | -12.11344 | -38.93610 | 30978 ft | 440 kts | 293° |
| 2026-04-23 17:47 | -12.10117 | -38.96513 | 31586 ft | 440 kts | 293° |
| 2026-04-23 17:47 | -12.07693 | -39.02228 | 31961 ft | 442 kts | 293° |
| 2026-04-23 17:48 | -12.06471 | -39.05106 | 31967 ft | 440 kts | 293° |
| 2026-04-23 17:48 | -12.04040 | -39.10826 | 31974 ft | 438 kts | 293° |
| 2026-04-23 17:49 | -12.01585 | -39.16521 | 31970 ft | 439 kts | 297° |
| 2026-04-23 17:49 | -11.99892 | -39.19116 | 31970 ft | 438 kts | 311° |
| 2026-04-23 17:49 | -11.97700 | -39.21241 | 31977 ft | 433 kts | 324° |
| 2026-04-23 17:50 | -11.92598 | -39.24449 | 31979 ft | 430 kts | 334° |
| 2026-04-23 17:50 | -11.84661 | -39.28639 | 31979 ft | 430 kts | 335° |
| 2026-04-23 17:51 | -11.79371 | -39.31463 | 31980 ft | 430 kts | 334° |
| 2026-04-23 17:52 | -11.71420 | -39.35729 | 31981 ft | 430 kts | 334° |
| 2026-04-23 17:52 | -11.64380 | -39.39521 | 31981 ft | 429 kts | 334° |
| 2026-04-23 17:53 | -11.56448 | -39.43790 | 31982 ft | 429 kts | 334° |
| 2026-04-23 17:54 | -11.50303 | -39.47095 | 31983 ft | 429 kts | 334° |
| 2026-04-23 17:54 | -11.43198 | -39.50914 | 31965 ft | 439 kts | 334° |
| 2026-04-23 17:55 | -11.35086 | -39.55275 | 31925 ft | 429 kts | 334° |
| 2026-04-23 17:56 | -11.29837 | -39.58091 | 31977 ft | 429 kts | 334° |
| 2026-04-23 17:56 | -11.21874 | -39.62362 | 31955 ft | 429 kts | 334° |
| 2026-04-23 17:57 | -11.16610 | -39.65180 | 31898 ft | 426 kts | 334° |
| 2026-04-23 17:58 | -11.08700 | -39.69420 | 31972 ft | 428 kts | 334° |
| 2026-04-23 17:58 | -11.03426 | -39.72246 | 31979 ft | 427 kts | 334° |
| 2026-04-23 17:59 | -10.98199 | -39.75046 | 31979 ft | 423 kts | 334° |
| 2026-04-23 17:59 | -10.93032 | -39.77812 | 31979 ft | 422 kts | 334° |
| 2026-04-23 18:00 | -10.87792 | -39.80616 | 31978 ft | 421 kts | 334° |
| 2026-04-23 18:00 | -10.82649 | -39.83367 | 31977 ft | 421 kts | 334° |
| 2026-04-23 18:01 | -10.77471 | -39.86135 | 31977 ft | 420 kts | 334° |
| 2026-04-23 18:01 | -10.72308 | -39.88894 | 31976 ft | 419 kts | 334° |
| 2026-04-23 18:02 | -10.67152 | -39.91654 | 31974 ft | 418 kts | 333° |
| 2026-04-23 18:02 | -10.64573 | -39.93032 | 31698 ft | 417 kts | 333° |
| 2026-04-23 18:02 | -10.62009 | -39.94401 | 31336 ft | 413 kts | 333° |
| 2026-04-23 18:02 | -10.59461 | -39.95761 | 30743 ft | 415 kts | 333° |
| 2026-04-23 18:03 | -10.56898 | -39.97128 | 30240 ft | 415 kts | 333° |
| 2026-04-23 18:03 | -10.54336 | -39.98495 | 29786 ft | 414 kts | 333° |
| 2026-04-23 18:03 | -10.51832 | -39.99831 | 29338 ft | 412 kts | 333° |
| 2026-04-23 18:03 | -10.49301 | -40.01180 | 28875 ft | 409 kts | 334° |
| 2026-04-23 18:04 | -10.46789 | -40.02520 | 28414 ft | 407 kts | 334° |
| 2026-04-23 18:04 | -10.44282 | -40.03856 | 27956 ft | 404 kts | 334° |
| 2026-04-23 18:04 | -10.41813 | -40.05197 | 27501 ft | 402 kts | 331° |
| 2026-04-23 18:04 | -10.39451 | -40.06696 | 27051 ft | 399 kts | 328° |
| 2026-04-23 18:05 | -10.37178 | -40.08287 | 26602 ft | 396 kts | 326° |
| 2026-04-23 18:05 | -10.34937 | -40.09921 | 26153 ft | 393 kts | 326° |
| 2026-04-23 18:05 | -10.32719 | -40.11528 | 25709 ft | 390 kts | 326° |
| 2026-04-23 18:05 | -10.30514 | -40.13113 | 25268 ft | 387 kts | 326° |
| 2026-04-23 18:06 | -10.28315 | -40.14686 | 24827 ft | 384 kts | 327° |
| 2026-04-23 18:06 | -10.26135 | -40.16239 | 24378 ft | 381 kts | 327° |
| 2026-04-23 18:06 | -10.23977 | -40.17774 | 23932 ft | 378 kts | 327° |
| 2026-04-23 18:06 | -10.21833 | -40.19296 | 23492 ft | 375 kts | 327° |
| 2026-04-23 18:07 | -10.19697 | -40.20810 | 23054 ft | 372 kts | 327° |
| 2026-04-23 18:07 | -10.17615 | -40.22285 | 22624 ft | 369 kts | 327° |
| 2026-04-23 18:07 | -10.15518 | -40.23770 | 22223 ft | 365 kts | 327° |
| 2026-04-23 18:07 | -10.13456 | -40.25231 | 22095 ft | 356 kts | 327° |
| 2026-04-23 18:08 | -10.12117 | -40.26181 | 21937 ft | 354 kts | 327° |
| 2026-04-23 18:08 | -10.09404 | -40.28104 | 21217 ft | 356 kts | 327° |
| 2026-04-23 18:08 | -10.07387 | -40.29534 | 20764 ft | 354 kts | 327° |
| 2026-04-23 18:08 | -10.05365 | -40.30965 | 20289 ft | 353 kts | 327° |
| 2026-04-23 18:09 | -10.03335 | -40.32402 | 19616 ft | 358 kts | 327° |
| 2026-04-23 18:09 | -10.01296 | -40.33844 | 19141 ft | 356 kts | 327° |
| 2026-04-23 18:09 | -9.99267 | -40.35279 | 18678 ft | 354 kts | 327° |
| 2026-04-23 18:09 | -9.97255 | -40.36701 | 18220 ft | 351 kts | 326° |
| 2026-04-23 18:10 | -9.95255 | -40.38116 | 17764 ft | 349 kts | 326° |
| 2026-04-23 18:10 | -9.93297 | -40.39500 | 17316 ft | 347 kts | 327° |
| 2026-04-23 18:10 | -9.91328 | -40.40892 | 16862 ft | 344 kts | 327° |
| 2026-04-23 18:10 | -9.89368 | -40.42276 | 16407 ft | 342 kts | 327° |
| 2026-04-23 18:11 | -9.87416 | -40.43655 | 15952 ft | 340 kts | 327° |
| 2026-04-23 18:11 | -9.85481 | -40.45022 | 15498 ft | 338 kts | 327° |
| 2026-04-23 18:11 | -9.83551 | -40.46385 | 15041 ft | 336 kts | 327° |
| 2026-04-23 18:11 | -9.81631 | -40.47741 | 14586 ft | 334 kts | 327° |
| 2026-04-23 18:12 | -9.79735 | -40.49079 | 14132 ft | 332 kts | 327° |
| 2026-04-23 18:12 | -9.77839 | -40.50418 | 13675 ft | 330 kts | 327° |
| 2026-04-23 18:12 | -9.75958 | -40.51746 | 13219 ft | 329 kts | 327° |
| 2026-04-23 18:12 | -9.74086 | -40.53067 | 12763 ft | 327 kts | 327° |
| 2026-04-23 18:13 | -9.72219 | -40.54384 | 12305 ft | 325 kts | 327° |
| 2026-04-23 18:13 | -9.70369 | -40.55691 | 11848 ft | 324 kts | 327° |
| 2026-04-23 18:13 | -9.68522 | -40.56993 | 11389 ft | 322 kts | 327° |
| 2026-04-23 18:13 | -9.66714 | -40.58268 | 10929 ft | 316 kts | 327° |
| 2026-04-23 18:14 | -9.64946 | -40.59518 | 10480 ft | 299 kts | 327° |
| 2026-04-23 18:14 | -9.63288 | -40.60689 | 10063 ft | 293 kts | 327° |
| 2026-04-23 18:14 | -9.61588 | -40.61888 | 9888 ft | 296 kts | 327° |
| 2026-04-23 18:14 | -9.59909 | -40.63073 | 9643 ft | 298 kts | 326° |
| 2026-04-23 18:15 | -9.58227 | -40.64258 | 9221 ft | 290 kts | 326° |
| 2026-04-23 18:15 | -9.56609 | -40.65398 | 8812 ft | 276 kts | 326° |
| 2026-04-23 18:15 | -9.55024 | -40.66515 | 8422 ft | 281 kts | 326° |
| 2026-04-23 18:15 | -9.53404 | -40.67656 | 8025 ft | 287 kts | 326° |
| 2026-04-23 18:16 | -9.51747 | -40.68823 | 7614 ft | 290 kts | 326° |
| 2026-04-23 18:16 | -9.50106 | -40.69979 | 7204 ft | 282 kts | 326° |
| 2026-04-23 18:16 | -9.48538 | -40.71083 | 6809 ft | 268 kts | 326° |
| 2026-04-23 18:17 | -9.45419 | -40.73279 | 6041 ft | 281 kts | 326° |
| 2026-04-23 18:17 | -9.43814 | -40.74409 | 5636 ft | 280 kts | 326° |
| 2026-04-23 18:17 | -9.42243 | -40.75515 | 5304 ft | 273 kts | 326° |
| 2026-04-23 18:17 | -9.40620 | -40.76444 | 5066 ft | 266 kts | 341° |
| 2026-04-23 18:18 | -9.38821 | -40.76720 | 4903 ft | 262 kts | 6° |
| 2026-04-23 18:18 | -9.37106 | -40.76311 | 4605 ft | 248 kts | 21° |
| 2026-04-23 18:18 | -9.35560 | -40.75706 | 4362 ft | 228 kts | 24° |
| 2026-04-23 18:18 | -9.34144 | -40.75164 | 4129 ft | 209 kts | 22° |
| 2026-04-23 18:19 | -9.32830 | -40.74692 | 3913 ft | 193 kts | 22° |
| 2026-04-23 18:19 | -9.31612 | -40.74147 | 3706 ft | 189 kts | 41° |
| 2026-04-23 18:19 | -9.31015 | -40.73078 | 3574 ft | 170 kts | 82° |
| 2026-04-23 18:19 | -9.31069 | -40.71946 | 3454 ft | 158 kts | 102° |
| 2026-04-23 18:20 | -9.31369 | -40.70879 | 3352 ft | 158 kts | 109° |
| 2026-04-23 18:20 | -9.31743 | -40.69828 | 3253 ft | 160 kts | 110° |
| 2026-04-23 18:20 | -9.32122 | -40.68781 | 3168 ft | 153 kts | 111° |
| 2026-04-23 18:20 | -9.32479 | -40.67799 | 3058 ft | 147 kts | 112° |
| 2026-04-23 18:21 | -9.32838 | -40.66836 | 3034 ft | 146 kts | 111° |
| 2026-04-23 18:21 | -9.33182 | -40.65863 | 3054 ft | 148 kts | 110° |
| 2026-04-23 18:21 | -9.33527 | -40.64862 | 2808 ft | 152 kts | 110° |
| 2026-04-23 18:21 | -9.33870 | -40.63861 | 2577 ft | 153 kts | 109° |
| 2026-04-23 18:22 | -9.34219 | -40.62841 | 2371 ft | 153 kts | 109° |
| 2026-04-23 18:22 | -9.34583 | -40.61834 | 2136 ft | 149 kts | 109° |
| 2026-04-23 18:22 | -9.34941 | -40.60861 | 1895 ft | 147 kts | 107° |
| 2026-04-23 18:22 | -9.35249 | -40.59877 | 1675 ft | 146 kts | 104° |
| 2026-04-23 18:23 | -9.35454 | -40.59230 | 1559 ft | 145 kts | 107° |
| 2026-04-23 18:23 | -9.36172 | -40.57138 | 1271 ft | 91 kts | 108° |
| 2026-04-23 18:24 | -9.36328 | -40.56671 | 1271 ft | 20 kts | 109° |
| 2026-04-23 18:24 | -9.36359 | -40.56582 | 1271 ft | 8 kts | 117° |
| 2026-04-23 18:24 | -9.36402 | -40.56550 | 1271 ft | 8 kts | 177° |
| 2026-04-23 18:25 | -9.36426 | -40.56559 | 1271 ft | 0 kts | 205° |
| 2026-04-23 18:25 | -9.36448 | -40.56569 | 1271 ft | 9 kts | 201° |
| 2026-04-23 18:25 | -9.36486 | -40.56583 | 1271 ft | 1 kts | 198° |
| 2026-04-23 18:25 | -9.36517 | -40.56586 | 1271 ft | 7 kts | 160° |
| 2026-04-23 18:26 | -9.36547 | -40.56548 | 1271 ft | 7 kts | 115° |
| 2026-04-23 18:26 | -9.36558 | -40.56516 | 1271 ft | 4 kts | 108° |
| 2026-04-23 18:26 | -9.36565 | -40.56493 | 1271 ft | 2 kts | 108° |
| 2026-04-23 18:26 | -9.36574 | -40.56486 | 1271 ft | 2 kts | 176° |
| 2026-04-23 18:27 | -9.36585 | -40.56491 | 1271 ft | 2 kts | 205° |
| 2026-04-23 18:27 | -9.36595 | -40.56495 | 1271 ft | 2 kts | 197° |
| 2026-04-23 18:27 | -9.36599 | -40.56496 | 1271 ft | 0 kts | 195° |